Time;durP1;ratioP1;P1;durP2;ratioP2;P2;SDS_P1;SDS_P2;PMS_P1;PMS_P2;Temp;Humidity;BMP_temperature;BMP_pressure;BME280_temperature;BME280_humidity;BME280_pressure;Samples;Min_cycle;Max_cycle;Signal;HPM_P1;HPM_P2
2021/12/04 00:00:53;;;;;;;;;;;7.40;78.90;;;;;;5020358;28;87838;-67
2021/12/04 00:03:18;;;;;;;;;;;7.40;78.80;;;;;;5020635;28;87245;-66
2021/12/04 00:05:52;;;;;;;;;;;7.30;78.80;;;;;;5021503;28;87396;-66
2021/12/04 00:08:18;;;;;;;;;;;7.30;78.70;;;;;;5018312;28;89773;-67
2021/12/04 00:10:44;;;;;;;;;;;7.40;78.80;;;;;;5019756;28;87245;-67
2021/12/04 00:13:09;;;;;;;;;;;7.40;78.80;;;;;;5023130;28;88190;-67
2021/12/04 00:15:35;;;;;;;;;;;7.30;78.80;;;;;;5022199;28;86398;-66
2021/12/04 00:18:00;;;;;;;;;;;7.30;78.80;;;;;;5020143;28;88124;-67
2021/12/04 00:20:30;;;;;;;;;;;7.30;78.70;;;;;;5016893;28;89592;-67
2021/12/04 00:22:58;;;;;;;;;;;7.30;78.80;;;;;;5018790;28;88060;-67
2021/12/04 00:25:24;;;;;;;;;;;7.30;78.80;;;;;;5017270;28;90176;-67
2021/12/04 00:27:50;;;;;;;;;;;7.30;78.70;;;;;;5017263;28;88194;-67
2021/12/04 00:30:15;;;;;;;;;;;7.30;78.70;;;;;;5018676;28;87276;-67
2021/12/04 00:32:44;;;;;;;;;;;7.30;78.60;;;;;;5020046;28;87223;-67
2021/12/04 00:35:32;;;;;;;;;;;7.30;79.20;;;;;;5019020;28;89555;-67
2021/12/04 00:49:07;;;;;;;;;;;7.20;78.90;;;;;;5017908;28;88080;-66
2021/12/04 00:51:33;;;;;;;;;;;7.20;78.80;;;;;;5018825;28;87166;-66
2021/12/04 00:53:59;;;;;;;;;;;7.10;78.80;;;;;;5019565;28;88079;-67
2021/12/04 00:56:24;;;;;;;;;;;7.20;78.90;;;;;;5020452;28;88751;-67
2021/12/04 00:58:50;;;;;;;;;;;7.20;78.80;;;;;;5023147;28;87298;-67
2021/12/04 01:01:16;;;;;;;;;;;7.20;78.70;;;;;;5016883;28;87765;-67
2021/12/04 01:03:41;;;;;;;;;;;7.20;78.70;;;;;;5016828;28;88837;-67
2021/12/04 01:06:07;;;;;;;;;;;7.20;78.70;;;;;;5018037;28;88149;-66
2021/12/04 01:08:33;;;;;;;;;;;7.10;78.70;;;;;;5018350;28;88113;-67
2021/12/04 01:10:58;;;;;;;;;;;7.10;78.70;;;;;;5019240;28;87158;-66
2021/12/04 01:13:24;;;;;;;;;;;7.10;78.70;;;;;;5018102;28;88157;-67
2021/12/04 01:15:49;;;;;;;;;;;7.10;78.80;;;;;;5019203;28;87628;-66
2021/12/04 01:18:15;;;;;;;;;;;7.10;78.90;;;;;;5020773;28;87156;-67
2021/12/04 01:20:41;;;;;;;;;;;7.10;78.70;;;;;;5021466;28;88022;-67
2021/12/04 01:23:06;;;;;;;;;;;7.00;78.80;;;;;;5016338;28;87291;-67
2021/12/04 01:25:33;;;;;;;;;;;7.00;78.80;;;;;;5017325;28;87146;-67
2021/12/04 01:27:59;;;;;;;;;;;7.00;78.70;;;;;;5016384;28;88183;-67
2021/12/04 01:30:24;;;;;;;;;;;7.00;78.80;;;;;;5018500;28;86535;-66
2021/12/04 01:32:50;;;;;;;;;;;7.00;78.80;;;;;;5019313;28;87140;-67
2021/12/04 01:35:15;;;;;;;;;;;7.00;78.90;;;;;;5019827;28;89175;-66
2021/12/04 01:37:41;;;;;;;;;;;7.00;78.80;;;;;;5019447;28;88115;-66
2021/12/04 01:40:06;;;;;;;;;;;7.00;78.70;;;;;;5019558;28;88069;-66
2021/12/04 01:42:35;;;;;;;;;;;7.00;78.60;;;;;;5019424;28;90214;-66
2021/12/04 01:45:02;;;;;;;;;;;7.00;78.70;;;;;;5018941;28;88857;-67
2021/12/04 01:47:27;;;;;;;;;;;6.90;78.80;;;;;;5016943;28;91392;-67
2021/12/04 01:49:54;;;;;;;;;;;6.90;78.70;;;;;;5019376;28;87109;-66
2021/12/04 01:52:20;;;;;;;;;;;6.90;78.80;;;;;;5017924;28;88019;-66
2021/12/04 01:54:46;;;;;;;;;;;7.00;78.80;;;;;;5018407;28;88762;-66
2021/12/04 01:57:14;;;;;;;;;;;6.90;78.60;;;;;;5019187;28;87159;-66
2021/12/04 01:59:41;;;;;;;;;;;6.90;78.70;;;;;;5016835;28;88706;-66
2021/12/04 02:02:06;;;;;;;;;;;6.90;78.60;;;;;;5016124;28;88561;-66
2021/12/04 02:04:32;;;;;;;;;;;6.90;78.60;;;;;;5021051;28;87204;-66
2021/12/04 02:07:01;;;;;;;;;;;6.90;78.60;;;;;;5018967;28;87666;-66
2021/12/04 02:09:26;;;;;;;;;;;6.90;78.50;;;;;;5015390;28;87121;-67
2021/12/04 02:11:52;;;;;;;;;;;6.90;78.50;;;;;;5015764;28;87139;-66
2021/12/04 02:14:18;;;;;;;;;;;6.90;78.60;;;;;;5016565;28;88296;-66
2021/12/04 02:16:45;;;;;;;;;;;6.90;78.30;;;;;;5017954;28;87248;-67
2021/12/04 02:19:10;;;;;;;;;;;6.90;78.40;;;;;;5017787;28;88806;-66
2021/12/04 02:21:36;;;;;;;;;;;6.90;78.50;;;;;;5017889;28;88510;-66
2021/12/04 02:24:01;;;;;;;;;;;6.90;78.50;;;;;;5022419;28;87178;-66
2021/12/04 02:26:27;;;;;;;;;;;6.90;78.30;;;;;;5018275;28;89122;-66
2021/12/04 02:28:54;;;;;;;;;;;6.90;78.30;;;;;;5015977;28;88887;-66
2021/12/04 02:31:20;;;;;;;;;;;6.90;78.50;;;;;;5020079;28;87936;-66
2021/12/04 02:33:46;;;;;;;;;;;6.80;78.20;;;;;;5016568;28;88783;-67
2021/12/04 02:36:11;;;;;;;;;;;6.80;78.30;;;;;;5015881;28;87283;-67
2021/12/04 02:38:37;;;;;;;;;;;6.80;78.40;;;;;;5016863;28;88647;-66
2021/12/04 02:41:03;;;;;;;;;;;6.80;78.60;;;;;;5017472;28;89432;-66
2021/12/04 02:43:32;;;;;;;;;;;6.80;78.40;;;;;;5019364;28;86529;-66
2021/12/04 02:45:58;;;;;;;;;;;6.80;78.30;;;;;;5018673;28;88708;-67
2021/12/04 02:48:23;;;;;;;;;;;6.80;78.20;;;;;;5016090;28;87192;-66
2021/12/04 02:50:49;;;;;;;;;;;6.80;78.30;;;;;;5016665;28;88090;-67
2021/12/04 02:53:15;;;;;;;;;;;6.80;78.20;;;;;;5018174;28;88235;-66
2021/12/04 02:55:41;;;;;;;;;;;6.80;78.20;;;;;;5019039;28;87135;-67
2021/12/04 02:58:06;;;;;;;;;;;6.80;78.20;;;;;;5020588;28;89663;-66
2021/12/04 03:00:33;;;;;;;;;;;6.80;78.20;;;;;;5022910;28;88006;-67
2021/12/04 03:02:59;;;;;;;;;;;6.80;78.20;;;;;;5022259;28;87144;-66
2021/12/04 03:05:26;;;;;;;;;;;6.70;78.20;;;;;;5022883;28;88671;-67
2021/12/04 03:07:53;;;;;;;;;;;6.80;78.20;;;;;;5024550;28;87481;-66
2021/12/04 03:10:18;;;;;;;;;;;6.80;78.20;;;;;;5021631;28;88180;-67
2021/12/04 03:12:44;;;;;;;;;;;6.70;78.20;;;;;;5021793;28;87986;-67
2021/12/04 03:15:09;;;;;;;;;;;6.80;78.10;;;;;;5022268;28;88113;-67
2021/12/04 03:17:35;;;;;;;;;;;6.80;78.00;;;;;;5020683;28;88505;-67
2021/12/04 03:20:02;;;;;;;;;;;6.80;77.90;;;;;;5017799;28;88745;-66
2021/12/04 03:22:28;;;;;;;;;;;6.70;77.90;;;;;;5020681;28;88575;-67
2021/12/04 03:24:56;;;;;;;;;;;6.70;78.00;;;;;;5017929;28;90474;-66
2021/12/04 03:27:21;;;;;;;;;;;6.70;77.90;;;;;;5021074;28;89165;-67
2021/12/04 03:29:59;;;;;;;;;;;6.70;77.90;;;;;;5021788;28;87177;-66
2021/12/04 03:40:55;;;;;;;;;;;6.70;77.80;;;;;;5015644;28;88309;-66
2021/12/04 03:43:20;;;;;;;;;;;6.70;77.90;;;;;;5020015;28;88619;-67
2021/12/04 03:45:49;;;;;;;;;;;6.70;78.00;;;;;;5017952;28;87279;-67
2021/12/04 03:50:55;;;;;;;;;;;6.70;77.80;;;;;;5022048;28;87151;-66
2021/12/04 03:53:21;;;;;;;;;;;6.60;77.90;;;;;;5024924;28;88627;-67
2021/12/04 03:55:47;;;;;;;;;;;6.70;77.70;;;;;;5019531;28;87885;-67
2021/12/04 03:58:12;;;;;;;;;;;6.70;78.40;;;;;;5018542;28;87653;-67
2021/12/04 04:00:38;;;;;;;;;;;6.60;77.70;;;;;;5018872;28;87970;-66
2021/12/04 04:03:03;;;;;;;;;;;6.70;77.70;;;;;;5020395;28;87170;-66
2021/12/04 04:05:29;;;;;;;;;;;6.60;77.70;;;;;;5020863;28;88073;-66
2021/12/04 04:07:55;;;;;;;;;;;6.60;77.70;;;;;;5019155;28;88723;-67
2021/12/04 04:10:21;;;;;;;;;;;6.60;77.80;;;;;;5017189;28;88119;-66
2021/12/04 04:12:47;;;;;;;;;;;6.60;77.80;;;;;;5020587;28;89240;-67
2021/12/04 04:15:13;;;;;;;;;;;6.60;77.70;;;;;;5017268;28;87146;-67
2021/12/04 04:17:42;;;;;;;;;;;6.60;77.70;;;;;;5018450;28;88609;-66
2021/12/04 04:20:13;;;;;;;;;;;6.60;77.70;;;;;;5020530;28;88381;-66
2021/12/04 04:22:39;;;;;;;;;;;6.60;77.70;;;;;;5022247;28;87905;-67
2021/12/04 04:25:05;;;;;;;;;;;6.60;77.60;;;;;;5019961;28;87243;-67
2021/12/04 04:27:30;;;;;;;;;;;6.60;77.60;;;;;;5018697;28;89751;-67
2021/12/04 04:29:56;;;;;;;;;;;6.60;77.60;;;;;;5016901;28;88145;-67
2021/12/04 04:32:23;;;;;;;;;;;6.50;77.60;;;;;;5018824;28;87161;-66
2021/12/04 04:34:52;;;;;;;;;;;6.50;77.70;;;;;;5020119;28;88733;-67
2021/12/04 05:12:15;;;;;;;;;;;6.40;77.50;;;;;;5020548;28;87498;-67
2021/12/04 05:14:43;;;;;;;;;;;6.40;77.50;;;;;;5019385;28;89209;-67
2021/12/04 05:17:26;;;;;;;;;;;6.40;77.50;;;;;;5016811;28;90138;-67
2021/12/04 05:19:53;;;;;;;;;;;6.40;77.40;;;;;;5019182;28;87165;-67
2021/12/04 05:22:19;;;;;;;;;;;6.40;77.40;;;;;;5020249;28;88116;-67
2021/12/04 05:24:45;;;;;;;;;;;6.40;77.60;;;;;;5018684;28;87167;-67
2021/12/04 05:27:11;;;;;;;;;;;6.40;77.50;;;;;;5020094;28;87153;-66
2021/12/04 05:29:36;;;;;;;;;;;6.40;77.40;;;;;;5018916;28;88202;-67
2021/12/04 05:32:03;;;;;;;;;;;6.40;77.50;;;;;;5018573;28;87199;-66
2021/12/04 05:34:30;;;;;;;;;;;6.40;77.50;;;;;;5016240;28;89380;-66
2021/12/04 05:36:55;;;;;;;;;;;6.30;77.50;;;;;;5015687;28;90079;-66
2021/12/04 05:39:21;;;;;;;;;;;6.30;77.70;;;;;;5017156;28;86432;-66
2021/12/04 05:41:47;;;;;;;;;;;6.30;77.50;;;;;;5017837;28;87129;-66
2021/12/04 05:44:15;;;;;;;;;;;6.30;77.40;;;;;;5021107;28;88939;-66
2021/12/04 05:46:52;;;;;;;;;;;6.30;77.50;;;;;;5015173;28;88878;-66
2021/12/04 05:49:31;;;;;;;;;;;6.40;77.50;;;;;;5018108;28;89689;-66
2021/12/04 05:57:07;;;;;;;;;;;6.30;77.70;;;;;;5015729;28;88279;-66
2021/12/04 05:59:32;;;;;;;;;;;6.30;77.60;;;;;;5016008;28;87167;-66
2021/12/04 06:01:58;;;;;;;;;;;6.30;77.60;;;;;;5017113;28;87692;-66
2021/12/04 06:04:24;;;;;;;;;;;6.30;77.50;;;;;;5017605;28;88408;-65
2021/12/04 06:06:50;;;;;;;;;;;6.30;77.40;;;;;;5021737;28;87167;-66
2021/12/04 06:09:16;;;;;;;;;;;6.30;77.50;;;;;;5018584;28;89170;-64
2021/12/04 06:11:41;;;;;;;;;;;6.30;77.50;;;;;;5019785;28;88201;-66
2021/12/04 06:14:07;;;;;;;;;;;6.30;77.60;;;;;;5017529;28;88665;-65
2021/12/04 06:16:33;;;;;;;;;;;6.20;77.60;;;;;;5015756;28;88696;-65
2021/12/04 06:19:05;;;;;;;;;;;6.20;77.80;;;;;;5015900;28;87137;-65
2021/12/04 06:24:15;;;;;;;;;;;6.20;77.60;;;;;;5015422;28;88909;-66
2021/12/04 06:26:41;;;;;;;;;;;6.20;77.60;;;;;;5020510;28;88695;-65
2021/12/04 06:29:06;;;;;;;;;;;6.20;77.60;;;;;;5015387;28;90280;-65
2021/12/04 06:31:32;;;;;;;;;;;6.20;77.60;;;;;;5016419;28;87160;-65
2021/12/04 06:33:58;;;;;;;;;;;6.20;77.60;;;;;;5019752;28;88630;-65
2021/12/04 06:36:25;;;;;;;;;;;6.10;77.70;;;;;;5020726;28;88587;-65
2021/12/04 06:38:51;;;;;;;;;;;6.20;77.60;;;;;;5020919;28;87163;-65
2021/12/04 06:41:16;;;;;;;;;;;6.20;77.60;;;;;;5021491;28;87510;-65
2021/12/04 06:43:47;;;;;;;;;;;6.10;77.60;;;;;;5022044;28;89361;-65
2021/12/04 06:46:14;;;;;;;;;;;6.10;77.60;;;;;;5023252;28;88585;-65
2021/12/04 06:48:59;;;;;;;;;;;6.20;77.50;;;;;;5025920;28;89116;-65
2021/12/04 06:51:30;;;;;;;;;;;6.10;77.40;;;;;;5020031;28;87270;-66
2021/12/04 06:56:23;;;;;;;;;;;6.10;77.50;;;;;;5019572;28;88440;-65
2021/12/04 06:58:48;;;;;;;;;;;6.10;77.50;;;;;;5019207;28;87926;-65
2021/12/04 07:01:14;;;;;;;;;;;6.10;77.60;;;;;;5018562;28;88098;-65
2021/12/04 07:03:39;;;;;;;;;;;6.10;77.50;;;;;;5019861;28;88253;-65
2021/12/04 07:06:06;;;;;;;;;;;6.10;77.60;;;;;;5021469;28;87153;-65
2021/12/04 07:08:31;;;;;;;;;;;6.10;77.70;;;;;;5021703;28;87175;-65
2021/12/04 07:10:57;;;;;;;;;;;6.10;77.60;;;;;;5024901;28;88716;-65
2021/12/04 07:13:22;;;;;;;;;;;6.10;77.60;;;;;;5021353;28;88011;-65
2021/12/04 07:15:48;;;;;;;;;;;6.00;77.60;;;;;;5017598;28;88136;-65
2021/12/04 07:18:14;;;;;;;;;;;6.10;78.10;;;;;;5018998;28;88103;-65
2021/12/04 07:20:40;;;;;;;;;;;6.00;77.50;;;;;;5018290;28;87225;-65
2021/12/04 07:23:05;;;;;;;;;;;6.00;77.60;;;;;;5017938;28;87134;-65
2021/12/04 07:25:31;;;;;;;;;;;6.00;77.60;;;;;;5018677;28;88213;-65
2021/12/04 07:27:58;;;;;;;;;;;6.00;77.80;;;;;;5019802;28;89771;-65
2021/12/04 07:30:24;;;;;;;;;;;6.00;77.70;;;;;;5018594;28;87614;-65
2021/12/04 07:32:50;;;;;;;;;;;6.00;77.80;;;;;;5022792;28;87193;-65
2021/12/04 07:35:16;;;;;;;;;;;6.00;77.80;;;;;;5019642;28;88892;-65
2021/12/04 07:37:42;;;;;;;;;;;5.90;77.80;;;;;;5021478;28;87211;-64
2021/12/04 07:40:08;;;;;;;;;;;5.90;78.00;;;;;;5021089;28;87310;-65
2021/12/04 07:42:33;;;;;;;;;;;5.90;77.80;;;;;;5021405;28;87570;-65
2021/12/04 07:44:59;;;;;;;;;;;5.90;77.90;;;;;;5022101;28;87178;-66
2021/12/04 07:47:25;;;;;;;;;;;5.90;77.80;;;;;;5019959;28;89496;-65
2021/12/04 07:49:51;;;;;;;;;;;5.90;77.80;;;;;;5018445;28;89697;-65
2021/12/04 07:52:16;;;;;;;;;;;5.90;77.90;;;;;;5018048;28;87288;-65
2021/12/04 07:54:42;;;;;;;;;;;5.90;77.90;;;;;;5021914;28;87173;-65
2021/12/04 07:57:08;;;;;;;;;;;5.90;78.00;;;;;;5020070;28;87205;-65
2021/12/04 07:59:33;;;;;;;;;;;5.80;78.10;;;;;;5020982;28;87714;-66
2021/12/04 08:01:59;;;;;;;;;;;5.80;77.90;;;;;;5021670;28;89480;-65
2021/12/04 08:04:25;;;;;;;;;;;5.90;78.10;;;;;;5019964;28;87998;-65
2021/12/04 08:06:51;;;;;;;;;;;5.80;78.10;;;;;;5019071;28;87830;-66
2021/12/04 08:09:17;;;;;;;;;;;5.90;78.00;;;;;;5017292;28;88532;-65
2021/12/04 08:11:42;;;;;;;;;;;5.80;78.00;;;;;;5017898;28;87141;-65
2021/12/04 08:14:08;;;;;;;;;;;5.80;78.10;;;;;;5016592;28;88990;-65
2021/12/04 08:16:34;;;;;;;;;;;5.80;78.10;;;;;;5020473;28;87912;-65
2021/12/04 08:18:59;;;;;;;;;;;5.80;78.10;;;;;;5018119;28;88861;-65
2021/12/04 08:21:25;;;;;;;;;;;5.80;78.10;;;;;;5016979;28;89325;-66
2021/12/04 08:23:51;;;;;;;;;;;5.80;78.10;;;;;;5018294;28;87143;-65
2021/12/04 08:26:17;;;;;;;;;;;5.80;78.20;;;;;;5018929;28;87658;-66
2021/12/04 08:28:43;;;;;;;;;;;5.80;78.10;;;;;;5018739;28;89745;-65
2021/12/04 08:31:09;;;;;;;;;;;5.90;77.80;;;;;;5020235;28;86455;-65
2021/12/04 08:33:34;;;;;;;;;;;5.90;77.80;;;;;;5020852;28;88620;-65
2021/12/04 08:36:01;;;;;;;;;;;5.80;77.70;;;;;;5023656;28;88668;-65
2021/12/04 08:38:27;;;;;;;;;;;5.90;77.90;;;;;;5020757;28;89039;-65
2021/12/04 08:40:53;;;;;;;;;;;5.90;77.90;;;;;;5019824;28;88962;-65
2021/12/04 08:43:18;;;;;;;;;;;5.80;77.80;;;;;;5020951;28;88063;-65
2021/12/04 08:45:44;;;;;;;;;;;5.90;77.70;;;;;;5018695;28;87875;-65
2021/12/04 08:48:12;;;;;;;;;;;5.90;77.60;;;;;;5016699;28;89653;-65
2021/12/04 08:50:38;;;;;;;;;;;5.90;77.70;;;;;;5021369;28;87271;-64
2021/12/04 08:53:04;;;;;;;;;;;5.90;77.60;;;;;;5021574;28;87716;-65
2021/12/04 08:55:30;;;;;;;;;;;5.90;77.70;;;;;;5018941;28;90576;-65
2021/12/04 08:57:55;;;;;;;;;;;5.80;77.80;;;;;;5021461;28;87235;-65
2021/12/04 09:00:26;;;;;;;;;;;5.80;77.80;;;;;;5016244;28;87780;-65
2021/12/04 09:02:52;;;;;;;;;;;5.80;78.00;;;;;;5017833;28;88117;-65
2021/12/04 09:05:19;;;;;;;;;;;5.80;77.90;;;;;;5018120;28;90060;-65
2021/12/04 09:07:45;;;;;;;;;;;5.90;77.70;;;;;;5017563;28;88780;-65
2021/12/04 09:10:11;;;;;;;;;;;5.80;77.70;;;;;;5018819;28;87147;-64
2021/12/04 09:12:38;;;;;;;;;;;5.90;77.70;;;;;;5019176;28;87532;-64
2021/12/04 09:15:04;;;;;;;;;;;5.80;77.70;;;;;;5018030;28;89324;-64
2021/12/04 09:17:30;;;;;;;;;;;5.80;77.80;;;;;;5018004;28;87259;-64
2021/12/04 09:19:56;;;;;;;;;;;5.80;77.90;;;;;;5022234;28;87094;-64
2021/12/04 09:22:29;;;;;;;;;;;5.80;78.00;;;;;;5020507;28;87154;-65
2021/12/04 09:24:57;;;;;;;;;;;5.80;78.00;;;;;;5016469;28;87971;-64
2021/12/04 09:30:34;;;;;;;;;;;5.80;77.80;;;;;;5016585;28;87173;-65
2021/12/04 09:33:45;;;;;;;;;;;5.80;77.80;;;;;;5018431;28;87164;-64
2021/12/04 09:36:18;;;;;;;;;;;5.80;78.10;;;;;;5018769;28;87441;-63
2021/12/04 10:25:05;;;;;;;;;;;5.70;78.30;;;;;;5022573;28;91492;-64
2021/12/04 10:33:19;;;;;;;;;;;5.70;78.10;;;;;;5026279;28;87897;-64
2021/12/04 10:35:47;;;;;;;;;;;5.70;78.30;;;;;;5019955;28;87242;-64
2021/12/04 10:38:17;;;;;;;;;;;5.70;78.00;;;;;;5022029;28;87258;-64
2021/12/04 10:40:45;;;;;;;;;;;5.60;78.20;;;;;;5019565;28;86770;-64
2021/12/04 10:43:14;;;;;;;;;;;5.70;78.30;;;;;;5023009;28;87279;-64
2021/12/04 10:45:46;;;;;;;;;;;5.60;78.30;;;;;;5019918;28;87221;-64
2021/12/04 10:48:16;;;;;;;;;;;5.60;78.30;;;;;;5018378;28;90713;-64
2021/12/04 10:50:48;;;;;;;;;;;5.60;78.40;;;;;;5021080;28;87153;-64
2021/12/04 10:53:18;;;;;;;;;;;5.70;78.20;;;;;;5023726;28;88990;-64
2021/12/04 11:03:38;;;;;;;;;;;5.70;78.00;;;;;;4998231;28;88808;-65
2021/12/04 11:28:27;;;;;;;;;;;5.70;78.10;;;;;;5020477;28;87297;-64
2021/12/04 11:43:49;;;;;;;;;;;5.70;78.00;;;;;;5017385;28;88409;-64
2021/12/04 11:46:24;;;;;;;;;;;5.70;78.20;;;;;;5021004;28;87624;-64
2021/12/04 11:48:50;;;;;;;;;;;5.60;78.10;;;;;;5024023;27;87234;-65
2021/12/04 11:51:18;;;;;;;;;;;5.60;78.30;;;;;;5017348;28;89100;-64
2021/12/04 11:53:45;;;;;;;;;;;5.60;78.30;;;;;;5021897;28;87263;-64
2021/12/04 11:56:18;;;;;;;;;;;5.60;78.30;;;;;;5022415;28;87456;-64
2021/12/04 11:58:44;;;;;;;;;;;5.60;78.50;;;;;;5020503;28;88286;-64
2021/12/04 12:01:28;;;;;;;;;;;5.60;78.40;;;;;;5019703;28;87208;-64
2021/12/04 12:03:55;;;;;;;;;;;5.60;78.20;;;;;;5020976;28;88193;-64
2021/12/04 12:06:28;;;;;;;;;;;5.60;78.30;;;;;;5018079;28;89884;-64
2021/12/04 12:09:00;;;;;;;;;;;5.70;78.10;;;;;;5021409;28;89051;-64
2021/12/04 12:11:27;;;;;;;;;;;5.60;78.20;;;;;;5019715;28;89306;-64
2021/12/04 12:13:58;;;;;;;;;;;5.60;78.00;;;;;;5019227;28;87199;-64
2021/12/04 12:16:30;;;;;;;;;;;5.60;78.10;;;;;;5020382;28;87590;-64
2021/12/04 12:19:09;;;;;;;;;;;5.60;78.30;;;;;;5018998;28;89192;-64
2021/12/04 12:22:27;;;;;;;;;;;5.60;78.20;;;;;;5019816;28;88153;-64
2021/12/04 12:32:43;;;;;;;;;;;5.60;78.20;;;;;;5018190;28;88205;-64
2021/12/04 12:38:36;;;;;;;;;;;5.60;78.30;;;;;;5019111;28;87146;-64
2021/12/04 12:41:09;;;;;;;;;;;5.60;78.30;;;;;;5020543;28;88286;-64
2021/12/04 12:43:41;;;;;;;;;;;5.60;78.50;;;;;;5019309;28;87244;-64
2021/12/04 12:46:07;;;;;;;;;;;5.60;78.90;;;;;;5018816;28;88547;-64
2021/12/04 12:48:43;;;;;;;;;;;5.60;78.50;;;;;;5017437;28;87280;-64
2021/12/04 12:51:08;;;;;;;;;;;5.60;78.50;;;;;;5021786;28;86395;-64
2021/12/04 12:53:39;;;;;;;;;;;5.60;78.50;;;;;;5017131;28;90226;-64
2021/12/04 12:56:07;;;;;;;;;;;5.60;78.70;;;;;;5017007;28;88181;-64
2021/12/04 12:59:13;;;;;;;;;;;5.60;78.70;;;;;;5020470;28;88738;-64
2021/12/04 13:12:46;;;;;;;;;;;5.60;78.50;;;;;;5024411;28;87129;-64
2021/12/04 13:15:13;;;;;;;;;;;5.60;78.50;;;;;;5017457;28;88729;-64
2021/12/04 13:17:40;;;;;;;;;;;5.60;78.70;;;;;;5017490;28;86410;-64
2021/12/04 13:20:06;;;;;;;;;;;5.60;78.90;;;;;;5018513;28;88355;-65
2021/12/04 13:22:33;;;;;;;;;;;5.50;78.90;;;;;;5016093;28;89591;-64
2021/12/04 13:25:00;;;;;;;;;;;5.60;78.90;;;;;;5016623;28;88131;-64
2021/12/04 13:29:54;;;;;;;;;;;5.60;78.90;;;;;;5018793;28;88092;-64
2021/12/04 13:32:27;;;;;;;;;;;5.60;78.80;;;;;;5020193;28;87235;-64
2021/12/04 13:34:52;;;;;;;;;;;5.60;78.80;;;;;;5020406;28;87233;-64
2021/12/04 13:37:23;;;;;;;;;;;5.60;78.80;;;;;;5017266;28;87230;-64
2021/12/04 13:39:54;;;;;;;;;;;5.60;78.70;;;;;;5016392;28;87523;-64
2021/12/04 13:42:20;;;;;;;;;;;5.60;79.00;;;;;;5016913;28;87449;-64
2021/12/04 13:44:45;;;;;;;;;;;5.60;78.90;;;;;;5018174;28;87244;-64
2021/12/04 13:47:11;;;;;;;;;;;5.60;79.00;;;;;;5019469;28;87560;-64
2021/12/04 13:49:40;;;;;;;;;;;5.60;78.90;;;;;;5018661;28;89371;-64
2021/12/04 13:52:09;;;;;;;;;;;5.60;79.00;;;;;;5017293;28;87261;-64
2021/12/04 13:54:40;;;;;;;;;;;5.60;79.00;;;;;;5019529;28;88676;-64
2021/12/04 13:57:07;;;;;;;;;;;5.50;79.00;;;;;;5022823;28;88349;-64
2021/12/04 13:59:33;;;;;;;;;;;5.60;79.20;;;;;;5019712;28;87502;-64
2021/12/04 14:01:58;;;;;;;;;;;5.60;79.10;;;;;;5019756;28;87895;-64
2021/12/04 14:04:24;;;;;;;;;;;5.60;79.20;;;;;;5016895;28;88512;-64
2021/12/04 14:06:51;;;;;;;;;;;5.50;79.00;;;;;;5017262;28;87872;-64
2021/12/04 14:09:17;;;;;;;;;;;5.60;79.00;;;;;;5018946;28;87974;-64
2021/12/04 14:11:42;;;;;;;;;;;5.60;79.10;;;;;;5017252;28;87134;-64
2021/12/04 14:14:09;;;;;;;;;;;5.60;79.20;;;;;;5015701;28;88071;-64
2021/12/04 14:16:35;;;;;;;;;;;5.50;79.20;;;;;;5015420;28;87796;-64
2021/12/04 14:19:09;;;;;;;;;;;5.60;79.30;;;;;;5020055;28;87227;-64
2021/12/04 14:21:35;;;;;;;;;;;5.50;79.20;;;;;;5019233;28;89283;-63
2021/12/04 14:24:00;;;;;;;;;;;5.50;79.40;;;;;;5018930;28;88735;-64
2021/12/04 14:26:26;;;;;;;;;;;5.60;79.40;;;;;;5015494;28;88751;-64
2021/12/04 14:28:51;;;;;;;;;;;5.60;79.50;;;;;;5016335;28;87910;-64
2021/12/04 14:31:21;;;;;;;;;;;5.50;79.50;;;;;;5017997;28;86448;-64
2021/12/04 14:33:47;;;;;;;;;;;5.50;79.40;;;;;;5019218;28;87181;-64
2021/12/04 14:36:17;;;;;;;;;;;5.60;79.40;;;;;;5019247;28;87649;-63
2021/12/04 14:38:44;;;;;;;;;;;5.50;79.50;;;;;;5014652;28;89751;-64
2021/12/04 14:41:09;;;;;;;;;;;5.60;79.50;;;;;;5019535;28;90025;-64
2021/12/04 14:43:37;;;;;;;;;;;5.60;79.30;;;;;;5015687;28;87365;-64
2021/12/04 14:46:06;;;;;;;;;;;5.60;79.30;;;;;;5019407;28;88510;-64
2021/12/04 14:48:35;;;;;;;;;;;5.60;79.30;;;;;;5017062;28;88005;-64
2021/12/04 14:51:04;;;;;;;;;;;5.60;79.30;;;;;;5018449;28;88818;-64
2021/12/04 14:53:30;;;;;;;;;;;5.50;79.40;;;;;;5017427;28;88533;-64
2021/12/04 14:55:56;;;;;;;;;;;5.60;79.50;;;;;;5021132;28;86414;-64
2021/12/04 14:58:23;;;;;;;;;;;5.50;79.60;;;;;;5021921;28;87169;-64
2021/12/04 15:00:51;;;;;;;;;;;5.50;79.50;;;;;;5023675;28;87166;-64
2021/12/04 15:03:18;;;;;;;;;;;5.50;79.70;;;;;;5018587;28;88167;-64
2021/12/04 15:05:45;;;;;;;;;;;5.50;79.80;;;;;;5018944;28;88002;-64
2021/12/04 15:08:17;;;;;;;;;;;5.50;79.60;;;;;;5021759;28;89245;-64
2021/12/04 15:11:01;;;;;;;;;;;5.50;79.60;;;;;;5020992;28;88014;-64
2021/12/04 15:13:29;;;;;;;;;;;5.60;79.70;;;;;;5020221;28;87235;-64
2021/12/04 15:15:57;;;;;;;;;;;5.50;79.70;;;;;;5018000;28;88674;-64
2021/12/04 15:18:25;;;;;;;;;;;5.50;79.80;;;;;;5022682;28;87200;-64
2021/12/04 15:20:54;;;;;;;;;;;5.50;79.80;;;;;;5021067;28;89247;-64
2021/12/04 15:23:22;;;;;;;;;;;5.50;79.60;;;;;;5024697;28;89436;-64
2021/12/04 15:25:51;;;;;;;;;;;5.60;79.70;;;;;;5021163;28;89197;-64
2021/12/04 15:28:18;;;;;;;;;;;5.50;79.90;;;;;;5017546;28;90303;-64
2021/12/04 15:30:45;;;;;;;;;;;5.50;79.80;;;;;;5018825;28;88722;-64
2021/12/04 15:33:21;;;;;;;;;;;5.50;79.90;;;;;;5020990;28;88194;-64
2021/12/04 15:35:50;;;;;;;;;;;5.50;80.50;;;;;;5017948;28;89705;-64
2021/12/04 15:38:23;;;;;;;;;;;5.50;79.70;;;;;;5020939;28;87163;-64
2021/12/04 15:46:02;;;;;;;;;;;5.50;79.70;;;;;;5024330;28;86402;-64
2021/12/04 15:49:07;;;;;;;;;;;5.50;79.80;;;;;;5018242;28;89182;-64
2021/12/04 15:54:03;;;;;;;;;;;5.60;79.90;;;;;;5019779;28;88159;-64
2021/12/04 15:56:29;;;;;;;;;;;5.50;79.80;;;;;;5020488;28;89603;-64
2021/12/04 15:58:54;;;;;;;;;;;5.50;79.90;;;;;;5017520;28;88873;-64
2021/12/04 16:01:26;;;;;;;;;;;5.50;79.80;;;;;;5018553;28;88727;-64
2021/12/04 16:03:51;;;;;;;;;;;5.60;79.90;;;;;;5017319;28;89261;-64
2021/12/04 16:06:17;;;;;;;;;;;5.50;79.80;;;;;;5018034;28;87159;-64
2021/12/04 16:08:42;;;;;;;;;;;5.50;79.90;;;;;;5021898;28;87389;-64
2021/12/04 16:11:09;;;;;;;;;;;5.60;79.90;;;;;;5020678;28;86404;-64
2021/12/04 16:13:35;;;;;;;;;;;5.60;79.80;;;;;;5020547;28;87263;-64
2021/12/04 16:16:15;;;;;;;;;;;5.50;79.70;;;;;;5019960;28;88147;-64
2021/12/04 16:18:42;;;;;;;;;;;5.60;79.90;;;;;;5019802;28;89795;-64
2021/12/04 16:21:09;;;;;;;;;;;5.50;79.80;;;;;;5022018;28;88713;-64
2021/12/04 16:23:35;;;;;;;;;;;5.50;79.70;;;;;;5021029;28;89492;-64
2021/12/04 16:26:01;;;;;;;;;;;5.50;79.70;;;;;;5021069;28;87334;-64
2021/12/04 16:36:36;;;;;;;;;;;5.50;79.90;;;;;;5022272;28;86414;-64
2021/12/04 16:39:07;;;;;;;;;;;5.50;79.90;;;;;;5020030;28;87304;-64
2021/12/04 16:41:32;;;;;;;;;;;5.50;79.90;;;;;;5018578;28;88799;-63
2021/12/04 16:43:58;;;;;;;;;;;5.50;79.90;;;;;;5017040;28;90757;-64
2021/12/04 16:46:25;;;;;;;;;;;5.50;79.90;;;;;;5018946;28;87188;-64
2021/12/04 16:48:53;;;;;;;;;;;5.50;79.80;;;;;;5018413;28;88558;-64
2021/12/04 16:59:04;;;;;;;;;;;5.60;79.90;;;;;;5018683;28;87833;-64
2021/12/04 17:01:30;;;;;;;;;;;5.60;79.90;;;;;;5018692;28;87157;-64
2021/12/04 17:03:55;;;;;;;;;;;5.60;79.80;;;;;;5016796;28;87841;-64
2021/12/04 17:06:21;;;;;;;;;;;5.60;79.80;;;;;;5017919;28;87199;-64
2021/12/04 17:08:47;;;;;;;;;;;5.60;79.70;;;;;;5018603;28;88109;-63
2021/12/04 17:11:13;;;;;;;;;;;5.60;79.80;;;;;;5018288;28;88016;-64
2021/12/04 17:13:40;;;;;;;;;;;5.50;79.70;;;;;;5019108;28;87154;-64
2021/12/04 17:16:05;;;;;;;;;;;5.60;79.90;;;;;;5015558;28;90765;-64
2021/12/04 17:18:35;;;;;;;;;;;5.60;79.80;;;;;;5017192;28;87143;-64
2021/12/04 17:21:01;;;;;;;;;;;5.50;79.90;;;;;;5019426;28;87448;-64
2021/12/04 17:23:27;;;;;;;;;;;5.50;80.00;;;;;;5020121;28;87643;-64
2021/12/04 17:25:54;;;;;;;;;;;5.50;79.90;;;;;;5020925;28;86439;-64
2021/12/04 17:28:21;;;;;;;;;;;5.50;80.00;;;;;;5020327;28;87134;-64
2021/12/04 17:30:49;;;;;;;;;;;5.60;79.80;;;;;;5018309;28;89897;-63
2021/12/04 17:33:14;;;;;;;;;;;5.60;79.90;;;;;;5017267;28;88129;-64
2021/12/04 17:35:40;;;;;;;;;;;5.60;79.80;;;;;;5021470;28;88410;-64
2021/12/04 17:38:06;;;;;;;;;;;5.60;79.90;;;;;;5020019;28;87137;-64
2021/12/04 17:40:34;;;;;;;;;;;5.50;79.80;;;;;;5020280;28;88895;-64
2021/12/04 17:43:00;;;;;;;;;;;5.60;79.80;;;;;;5018238;28;88949;-64
2021/12/04 17:45:26;;;;;;;;;;;5.60;79.60;;;;;;5018834;28;87176;-64
2021/12/04 17:47:52;;;;;;;;;;;5.60;79.70;;;;;;5019424;28;87363;-64
2021/12/04 17:50:20;;;;;;;;;;;5.60;79.80;;;;;;5019696;28;87839;-64
2021/12/04 17:52:46;;;;;;;;;;;5.60;79.90;;;;;;5015704;28;87142;-64
2021/12/04 17:55:14;;;;;;;;;;;5.60;79.90;;;;;;5015904;28;87237;-64
2021/12/04 17:57:41;;;;;;;;;;;5.60;79.90;;;;;;5022537;28;89379;-64
2021/12/04 18:00:12;;;;;;;;;;;5.50;80.00;;;;;;5020511;28;87212;-64
2021/12/04 18:02:38;;;;;;;;;;;5.60;79.80;;;;;;5019719;28;87637;-64
2021/12/04 18:05:04;;;;;;;;;;;5.60;79.80;;;;;;5020262;28;87159;-63
2021/12/04 18:07:30;;;;;;;;;;;5.60;79.80;;;;;;5020275;28;88945;-64